createdAt,value
2018-12-25T00:00:19.565Z,95194.59
2018-12-25T00:02:47.506Z,95207.09
2018-12-25T00:05:15.616Z,95217.44
2018-12-25T00:07:43.806Z,95209.63
2018-12-25T00:10:11.767Z,95215.46
2018-12-25T00:12:39.665Z,95217.17
2018-12-25T00:15:47.981Z,95228.16
2018-12-25T00:18:16.080Z,95225.58
2018-12-25T00:20:44.117Z,95232.47
2018-12-25T00:23:12.206Z,95237.00
2018-12-25T00:25:40.243Z,95254.05
2018-12-25T00:28:08.154Z,95252.34
2018-12-25T00:30:36.238Z,95251.11
2018-12-25T00:33:04.296Z,95249.83
2018-12-25T00:35:32.277Z,95265.11
2018-12-25T00:38:00.263Z,95268.90
2018-12-25T00:40:28.230Z,95257.91
2018-12-25T00:42:56.184Z,95258.44
2018-12-25T00:45:24.168Z,95254.95
2018-12-25T00:47:52.116Z,95255.75
2018-12-25T00:50:20.208Z,95262.21
2018-12-25T00:52:48.239Z,95259.16
2018-12-25T00:55:16.199Z,95267.91
2018-12-25T00:57:44.104Z,95258.31
2018-12-25T01:00:12.116Z,95267.51
2018-12-25T01:02:40.457Z,95272.07
2018-12-25T01:05:08.452Z,95263.43
2018-12-25T01:07:36.436Z,95277.50
2018-12-25T01:10:44.771Z,95276.59
2018-12-25T01:13:12.842Z,95276.03
2018-12-25T01:15:40.847Z,95283.75
2018-12-25T01:18:08.839Z,95284.86
2018-12-25T01:20:36.744Z,95284.94
2018-12-25T01:23:04.743Z,95292.07
2018-12-25T01:25:32.700Z,95295.13
2018-12-25T01:28:00.719Z,95294.05
2018-12-25T01:30:28.651Z,95291.31
2018-12-25T01:32:56.747Z,95296.05
2018-12-25T01:35:25.253Z,95303.41
2018-12-25T01:37:53.651Z,95305.63
2018-12-25T01:40:21.615Z,95299.42
2018-12-25T01:42:49.546Z,95296.33
2018-12-25T01:45:17.501Z,95310.88
2018-12-25T01:47:45.472Z,95304.12
2018-12-25T01:50:13.674Z,95287.32
2018-12-25T01:52:41.665Z,95306.12
2018-12-25T01:55:09.573Z,95297.98
2018-12-25T01:57:37.653Z,95286.23
2018-12-25T02:00:45.994Z,95292.36
2018-12-25T02:03:14.071Z,95286.81
2018-12-25T02:05:42.010Z,95291.25
2018-12-25T02:08:09.991Z,95274.23
2018-12-25T02:10:37.884Z,95295.62
2018-12-25T02:13:05.876Z,95293.06
2018-12-25T02:15:33.836Z,95280.72
2018-12-25T02:18:01.735Z,95300.13
2018-12-25T02:20:29.720Z,95280.66
2018-12-25T02:22:57.706Z,95290.80
2018-12-25T02:25:25.669Z,95290.94
2018-12-25T02:27:53.611Z,95290.94
2018-12-25T02:30:21.593Z,95300.61
2018-12-25T02:32:49.485Z,95299.57
2018-12-25T02:35:17.583Z,95284.42
2018-12-25T02:37:45.678Z,95300.38
2018-12-25T02:40:13.741Z,95292.75
2018-12-25T02:42:41.598Z,95305.12
2018-12-25T02:45:09.603Z,95290.06
2018-12-25T02:47:37.546Z,95307.02
2018-12-25T02:50:05.687Z,95306.23
2018-12-25T02:52:34.137Z,95305.84
2018-12-25T02:55:02.117Z,95288.44
2018-12-25T02:57:30.077Z,95296.49
2018-12-25T02:59:58.037Z,95296.11
2018-12-25T03:02:26.011Z,95288.46
2018-12-25T03:04:53.944Z,95287.58
2018-12-25T03:07:21.917Z,95304.95
2018-12-25T03:09:49.915Z,95306.27
2018-12-25T03:12:17.845Z,95303.17
2018-12-25T03:14:45.760Z,95304.72
2018-12-25T03:17:13.711Z,95287.06
2018-12-25T03:19:41.687Z,95302.16
2018-12-25T03:22:09.518Z,95300.67
2018-12-25T03:24:37.519Z,95305.05
2018-12-25T03:27:05.445Z,95308.64
2018-12-25T03:29:33.354Z,95304.88
2018-12-25T03:32:01.181Z,95335.75
2018-12-25T03:34:29.322Z,95322.95
2018-12-25T03:36:57.434Z,95334.40
2018-12-25T03:39:25.492Z,95318.97
2018-12-25T03:41:53.406Z,95329.98
2018-12-25T03:44:21.338Z,95331.89
2018-12-25T03:46:49.252Z,95351.14
2018-12-25T03:49:17.156Z,95350.39
2018-12-25T03:51:45.045Z,95361.04
2018-12-25T03:54:12.955Z,95357.78
2018-12-25T03:56:40.869Z,95366.34
2018-12-25T03:59:08.917Z,95382.77
2018-12-25T04:01:36.862Z,95382.02
2018-12-25T04:04:04.804Z,95404.72
2018-12-25T04:06:32.749Z,95406.62
2018-12-25T04:09:00.733Z,95404.50
2018-12-25T04:11:28.641Z,95396.69
2018-12-25T04:13:56.598Z,95409.09
2018-12-25T04:16:24.482Z,95413.10
2018-12-25T04:18:52.420Z,95414.80
2018-12-25T04:21:20.365Z,95410.05
2018-12-25T04:23:48.305Z,95434.81
2018-12-25T04:26:16.292Z,95441.29
2018-12-25T04:28:44.199Z,95433.67
2018-12-25T04:31:12.933Z,95424.32
2018-12-25T04:33:40.770Z,95441.50
2018-12-25T04:36:08.846Z,95429.50
2018-12-25T04:38:36.914Z,95440.75
2018-12-25T04:41:04.999Z,95432.55
2018-12-25T04:43:32.983Z,95448.34
2018-12-25T04:46:01.060Z,95446.45
2018-12-25T04:48:28.953Z,95460.34
2018-12-25T04:50:57.472Z,95452.34
2018-12-25T04:53:25.442Z,95462.46
2018-12-25T04:55:53.369Z,95473.13
2018-12-25T04:58:21.288Z,95459.97
2018-12-25T05:00:49.284Z,95449.87
2018-12-25T05:03:17.232Z,95456.91
2018-12-25T05:05:45.291Z,95462.23
2018-12-25T05:08:13.170Z,95475.59
2018-12-25T05:10:41.176Z,95474.08
2018-12-25T05:13:09.081Z,95490.47
2018-12-25T05:15:36.993Z,95494.23
2018-12-25T05:18:04.937Z,95494.84
2018-12-25T05:20:37.777Z,95499.42
2018-12-25T05:23:02.707Z,95511.61
2018-12-25T05:25:30.644Z,95510.66
2018-12-25T05:27:58.661Z,95508.36
2018-12-25T05:30:26.480Z,95501.14
2018-12-25T05:32:54.502Z,95499.61
2018-12-25T05:35:22.466Z,95512.20
2018-12-25T05:37:50.385Z,95518.11
2018-12-25T05:40:18.430Z,95505.16
2018-12-25T05:42:46.402Z,95512.59
2018-12-25T05:45:14.319Z,95526.69
2018-12-25T05:47:42.242Z,95525.36
2018-12-25T05:50:10.173Z,95534.32
2018-12-25T05:52:38.115Z,95527.83
2018-12-25T05:55:05.972Z,95528.77
2018-12-25T05:57:34.392Z,95523.05
2018-12-25T06:00:02.464Z,95528.95
2018-12-25T06:02:30.347Z,95520.37
2018-12-25T06:04:58.299Z,95544.98
2018-12-25T06:07:26.338Z,95549.20
2018-12-25T06:09:54.293Z,95548.03
2018-12-25T06:12:22.409Z,95544.62
2018-12-25T06:14:50.317Z,95537.95
2018-12-25T06:17:18.528Z,95541.95
2018-12-25T06:19:46.444Z,95561.77
2018-12-25T06:22:14.404Z,95562.92
2018-12-25T06:24:42.656Z,95563.88
2018-12-25T06:27:10.713Z,95571.88
2018-12-25T06:29:38.762Z,95571.48
2018-12-25T06:32:06.882Z,95573.20
2018-12-25T06:34:34.859Z,95587.11
2018-12-25T06:37:02.837Z,95583.09
2018-12-25T06:39:30.909Z,95581.37
2018-12-25T06:41:58.859Z,95585.41
2018-12-25T06:44:26.857Z,95581.78
2018-12-25T06:46:54.915Z,95580.07
2018-12-25T06:49:23.011Z,95580.45
2018-12-25T06:51:51.345Z,95579.32
2018-12-25T06:54:19.250Z,95586.56
2018-12-25T06:56:47.228Z,95587.30
2018-12-25T06:59:15.279Z,95600.95
2018-12-25T07:01:43.222Z,95585.89
2018-12-25T07:04:11.140Z,95580.53
2018-12-25T07:06:39.048Z,95579.24
2018-12-25T07:09:07.455Z,95574.66
2018-12-25T07:11:35.424Z,95584.41
2018-12-25T07:14:03.599Z,95583.08
2018-12-25T07:16:31.471Z,95580.83
2018-12-25T07:18:59.435Z,95583.67
2018-12-25T07:21:27.251Z,95571.88
2018-12-25T07:23:55.207Z,95576.08
2018-12-25T07:26:23.209Z,95576.44
2018-12-25T07:28:51.121Z,95591.30
2018-12-25T07:31:18.982Z,95585.77
2018-12-25T07:33:46.898Z,95603.33
2018-12-25T07:36:14.971Z,95607.33
2018-12-25T07:38:43.069Z,95593.02
2018-12-25T07:41:11.063Z,95595.70
2018-12-25T07:43:39.197Z,95594.48
2018-12-25T07:46:07.100Z,95583.64
2018-12-25T07:48:35.019Z,95593.78
2018-12-25T07:51:02.973Z,95605.59
2018-12-25T07:53:30.880Z,95588.85
2018-12-25T07:55:58.768Z,95602.78
2018-12-25T07:58:26.906Z,95606.77
2018-12-25T08:00:54.844Z,95595.92
2018-12-25T08:03:22.816Z,95594.59
2018-12-25T08:05:50.705Z,95596.86
2018-12-25T08:08:18.604Z,95581.98
2018-12-25T08:10:46.491Z,95599.66
2018-12-25T08:13:14.407Z,95604.22
2018-12-25T08:15:42.256Z,95602.91
2018-12-25T08:18:10.183Z,95606.73
2018-12-25T08:20:38.096Z,95601.97
2018-12-25T08:23:06.115Z,95607.48
2018-12-25T08:25:34.059Z,95616.67
2018-12-25T08:28:01.983Z,95610.37
2018-12-25T08:30:29.947Z,95609.82
2018-12-25T08:32:57.885Z,95606.22
2018-12-25T08:35:25.760Z,95606.02
2018-12-25T08:37:53.693Z,95621.47
2018-12-25T08:40:21.593Z,95628.47
2018-12-25T08:42:49.479Z,95620.07
2018-12-25T08:45:17.498Z,95620.11
2018-12-25T08:47:45.511Z,95616.64
2018-12-25T08:50:14.105Z,95610.73
2018-12-25T08:53:22.443Z,95607.90
2018-12-25T08:55:50.455Z,95604.47
2018-12-25T08:58:18.383Z,95600.69
2018-12-25T09:00:46.443Z,95598.75
2018-12-25T09:03:14.360Z,95594.01
2018-12-25T09:05:42.388Z,95608.13
2018-12-25T09:08:10.386Z,95606.78
2018-12-25T09:10:38.418Z,95607.14
2018-12-25T09:13:06.371Z,95592.47
2018-12-25T09:15:34.392Z,95597.23
2018-12-25T09:18:02.344Z,95601.81
2018-12-25T09:20:30.219Z,95601.81
2018-12-25T09:22:58.172Z,95602.40
2018-12-25T09:25:26.173Z,95592.67
2018-12-25T09:27:54.197Z,95594.95
2018-12-25T09:30:33.884Z,95584.28
2018-12-25T09:33:01.894Z,95602.20
2018-12-25T09:35:29.948Z,95613.07
2018-12-25T09:37:58.051Z,95600.11
2018-12-25T09:40:25.911Z,95585.78
2018-12-25T09:42:53.917Z,95597.23
2018-12-25T09:45:21.889Z,95593.79
2018-12-25T09:47:49.878Z,95591.89
2018-12-25T09:50:17.822Z,95584.84
2018-12-25T09:52:45.738Z,95596.46
2018-12-25T09:55:13.692Z,95587.86
2018-12-25T09:57:41.615Z,95592.66
2018-12-25T10:00:09.507Z,95592.06
2018-12-25T10:02:37.649Z,95593.44
2018-12-25T10:05:06.264Z,95584.45
2018-12-25T10:07:34.122Z,95581.60
2018-12-25T10:10:02.071Z,95587.31
2018-12-25T10:12:30.382Z,95584.05
2018-12-25T10:14:58.543Z,95581.94
2018-12-25T10:17:26.406Z,95575.86
2018-12-25T10:19:54.348Z,95575.13
2018-12-25T10:22:22.338Z,95556.99
2018-12-25T10:24:51.371Z,95553.53
2018-12-25T10:27:20.062Z,95563.02
2018-12-25T10:29:48.220Z,95560.16
2018-12-25T10:32:16.561Z,95558.06
2018-12-25T10:34:44.489Z,95551.58
2018-12-25T10:37:12.516Z,95554.95
2018-12-25T10:39:40.541Z,95548.32
2018-12-25T10:42:08.588Z,95552.94
2018-12-25T10:44:36.577Z,95555.98
2018-12-25T10:47:04.514Z,95551.21
2018-12-25T10:49:32.607Z,95543.20
2018-12-25T10:52:00.674Z,95544.70
2018-12-25T10:54:28.590Z,95545.09
2018-12-25T10:56:56.729Z,95536.89
2018-12-25T10:59:25.024Z,95539.19
2018-12-25T11:01:52.941Z,95523.53
2018-12-25T11:04:20.890Z,95527.20
2018-12-25T11:06:49.408Z,95527.98
2018-12-25T11:09:17.860Z,95532.58
2018-12-25T11:11:45.677Z,95532.00
2018-12-25T11:14:13.591Z,95532.94
2018-12-25T11:16:41.522Z,95527.22
2018-12-25T11:19:09.419Z,95538.61
2018-12-25T11:21:37.332Z,95530.74
2018-12-25T11:24:05.220Z,95521.56
2018-12-25T11:26:33.118Z,95523.75
2018-12-25T11:31:41.453Z,95534.64
2018-12-25T11:34:09.345Z,95539.98
2018-12-25T11:36:37.306Z,95535.63
2018-12-25T11:39:06.536Z,95527.07
2018-12-25T11:41:34.406Z,95528.38
2018-12-25T11:44:02.234Z,95540.77
2018-12-25T11:46:30.153Z,95533.33
2018-12-25T11:48:58.061Z,95535.80
2018-12-25T11:51:25.979Z,95535.44
2018-12-25T11:53:53.823Z,95529.53
2018-12-25T11:56:21.715Z,95530.25
2018-12-25T11:58:49.596Z,95531.22
2018-12-25T12:01:17.454Z,95535.64
2018-12-25T12:03:45.338Z,95547.65
2018-12-25T12:06:13.253Z,95532.39
2018-12-25T12:08:41.112Z,95533.54
2018-12-25T12:11:09.036Z,95531.62
2018-12-25T12:13:37.079Z,95545.38
2018-12-25T12:16:05.176Z,95552.23
2018-12-25T12:18:33.049Z,95549.00
2018-12-25T12:21:01.034Z,95547.67
2018-12-25T12:23:29.136Z,95547.63
2018-12-25T12:25:57.091Z,95553.34
2018-12-25T12:28:24.961Z,95550.69
2018-12-25T12:30:52.906Z,95550.30
2018-12-25T12:33:20.994Z,95549.20
2018-12-25T12:35:48.815Z,95547.27
2018-12-25T12:38:16.732Z,95571.68
2018-12-25T12:40:44.676Z,95563.67
2018-12-25T12:43:12.619Z,95572.08
2018-12-25T12:45:40.625Z,95563.09
2018-12-25T12:48:08.475Z,95564.64
2018-12-25T12:50:36.428Z,95570.92
2018-12-25T12:53:04.330Z,95572.82
2018-12-25T12:55:32.231Z,95566.73
2018-12-25T12:58:00.163Z,95565.56
2018-12-25T13:00:28.100Z,95572.23
2018-12-25T13:02:55.958Z,95572.81
2018-12-25T13:05:23.912Z,95576.04
2018-12-25T13:07:51.804Z,95577.20
2018-12-25T13:10:20.253Z,95571.67
2018-12-25T13:12:48.392Z,95567.86
2018-12-25T13:15:16.311Z,95575.06
2018-12-25T13:17:45.417Z,95566.88
2018-12-25T13:20:14.589Z,95582.90
2018-12-25T13:22:42.554Z,95582.53
2018-12-25T13:25:10.454Z,95575.63
2018-12-25T13:27:38.396Z,95580.01
2018-12-25T13:30:07.964Z,95580.77
2018-12-25T13:32:35.879Z,95578.29
2018-12-25T13:35:03.839Z,95576.76
2018-12-25T13:37:31.782Z,95586.48
2018-12-25T13:39:59.745Z,95595.09
2018-12-25T13:42:27.628Z,95594.52
2018-12-25T13:44:55.541Z,95591.65
2018-12-25T13:47:23.612Z,95584.41
2018-12-25T13:49:51.465Z,95598.29
2018-12-25T13:52:19.387Z,95597.34
2018-12-25T13:54:47.269Z,95603.08
2018-12-25T13:57:15.179Z,95610.50
2018-12-25T13:59:43.077Z,95609.19
2018-12-25T14:02:10.991Z,95608.95
2018-12-25T14:04:38.857Z,95612.42
2018-12-25T14:07:06.758Z,95605.87
2018-12-25T14:09:34.663Z,95611.25
2018-12-25T14:12:02.658Z,95610.87
2018-12-25T14:14:30.618Z,95617.33
2018-12-25T14:16:58.500Z,95618.10
2018-12-25T14:19:26.436Z,95619.86
2018-12-25T14:21:54.390Z,95610.80
2018-12-25T14:24:22.643Z,95617.31
2018-12-25T14:26:50.610Z,95620.53
2018-12-25T14:29:18.549Z,95638.40
2018-12-25T14:31:46.474Z,95643.17
2018-12-25T14:34:16.514Z,95644.72
2018-12-25T14:36:44.355Z,95648.94
2018-12-25T14:39:12.198Z,95651.36
2018-12-25T14:41:40.171Z,95652.72
2018-12-25T14:44:08.206Z,95638.21
2018-12-25T14:46:36.142Z,95644.62
2018-12-25T14:49:04.090Z,95651.88
2018-12-25T14:51:32.036Z,95662.43
2018-12-25T14:53:59.957Z,95662.09
2018-12-25T14:56:27.934Z,95662.70
2018-12-25T14:58:55.773Z,95661.36
2018-12-25T15:01:23.699Z,95665.83
2018-12-25T15:03:51.698Z,95666.69
2018-12-25T15:06:19.576Z,95660.80
2018-12-25T15:08:47.515Z,95663.20
2018-12-25T15:11:15.458Z,95671.91
2018-12-25T15:13:43.398Z,95657.84
2018-12-25T15:16:11.356Z,95663.53
2018-12-25T15:18:39.335Z,95664.13
2018-12-25T15:21:07.200Z,95670.70
2018-12-25T15:23:35.139Z,95673.36
2018-12-25T15:26:03.180Z,95679.06
2018-12-25T15:28:31.112Z,95685.27
2018-12-25T15:30:59.023Z,95687.70
2018-12-25T15:33:26.992Z,95692.17
2018-12-25T15:35:55.168Z,95677.15
2018-12-25T15:38:23.343Z,95681.09
2018-12-25T15:40:51.511Z,95688.83
2018-12-25T15:43:19.472Z,95682.09
2018-12-25T15:45:47.336Z,95696.33
2018-12-25T15:48:15.372Z,95692.28
2018-12-25T15:50:43.482Z,95689.63
2018-12-25T15:53:11.447Z,95697.61
2018-12-25T15:55:39.356Z,95703.22
2018-12-25T15:58:07.806Z,95708.17
2018-12-25T16:00:35.885Z,95702.75
2018-12-25T16:03:03.836Z,95705.76
2018-12-25T16:05:31.840Z,95710.90
2018-12-25T16:07:59.807Z,95704.66
2018-12-25T16:10:27.813Z,95717.20
2018-12-25T16:12:55.732Z,95709.98
2018-12-25T16:15:23.657Z,95712.47
2018-12-25T16:17:51.657Z,95715.92
2018-12-25T16:20:21.357Z,95715.36
2018-12-25T16:22:49.457Z,95713.62
2018-12-25T16:25:17.411Z,95708.79
2018-12-25T16:27:45.390Z,95724.84
2018-12-25T16:30:13.366Z,95720.53
2018-12-25T16:32:41.280Z,95725.31
2018-12-25T16:35:09.215Z,95731.13
2018-12-25T16:37:48.434Z,95723.88
2018-12-25T16:40:16.507Z,95736.03
2018-12-25T16:42:44.444Z,95743.84
2018-12-25T16:45:12.481Z,95746.16
2018-12-25T16:47:40.503Z,95743.55
2018-12-25T16:50:08.434Z,95745.97
2018-12-25T16:52:36.277Z,95745.97
2018-12-25T16:55:04.358Z,95745.56
2018-12-25T16:57:32.295Z,95747.73
2018-12-25T17:00:00.329Z,95751.56
2018-12-25T17:02:28.238Z,95738.41
2018-12-25T17:04:56.357Z,95745.84
2018-12-25T17:07:24.222Z,95738.52
2018-12-25T17:09:52.150Z,95739.14
2018-12-25T17:12:20.166Z,95744.88
2018-12-25T17:14:48.578Z,95743.25
2018-12-25T17:17:19.592Z,95743.19
2018-12-25T17:19:47.481Z,95744.89
2018-12-25T17:22:15.414Z,95749.84
2018-12-25T17:24:43.522Z,95756.95
2018-12-25T17:27:11.461Z,95753.98
2018-12-25T17:29:39.547Z,95761.42
2018-12-25T17:32:07.486Z,95751.97
2018-12-25T17:34:35.397Z,95768.06
2018-12-25T17:37:03.400Z,95763.61
2018-12-25T17:39:31.345Z,95770.61
2018-12-25T17:41:59.355Z,95762.67
2018-12-25T17:44:27.354Z,95764.98
2018-12-25T17:46:55.240Z,95763.41
2018-12-25T17:49:23.165Z,95772.84
2018-12-25T17:51:51.034Z,95777.74
2018-12-25T17:54:19.076Z,95773.90
2018-12-25T17:56:47.020Z,95771.94
2018-12-25T17:59:14.932Z,95768.55
2018-12-25T18:01:42.869Z,95773.16
2018-12-25T18:04:10.779Z,95754.95
2018-12-25T18:06:38.677Z,95777.16
2018-12-25T18:09:06.736Z,95767.65
2018-12-25T18:11:34.690Z,95778.73
2018-12-25T18:14:02.620Z,95773.34
2018-12-25T18:16:30.487Z,95768.16
2018-12-25T18:18:58.444Z,95773.27
2018-12-25T18:21:26.388Z,95767.34
2018-12-25T18:23:54.633Z,95774.61
2018-12-25T18:26:22.503Z,95780.47
2018-12-25T18:28:50.456Z,95775.38
2018-12-25T18:31:18.466Z,95764.42
2018-12-25T18:33:46.468Z,95763.70
2018-12-25T18:36:14.300Z,95767.09
2018-12-25T18:38:42.216Z,95776.10
2018-12-25T18:41:10.172Z,95773.61
2018-12-25T18:43:38.216Z,95773.13
2018-12-25T18:46:06.036Z,95772.30
2018-12-25T18:48:34.040Z,95786.39
2018-12-25T18:51:02.014Z,95784.07
2018-12-25T18:53:29.886Z,95773.20
2018-12-25T18:55:57.879Z,95777.95
2018-12-25T18:58:25.803Z,95776.09
2018-12-25T19:00:53.719Z,95782.66
2018-12-25T19:03:21.623Z,95777.59
2018-12-25T19:05:49.668Z,95783.63
2018-12-25T19:08:17.635Z,95774.48
2018-12-25T19:10:45.472Z,95785.31
2018-12-25T19:13:13.610Z,95782.48
2018-12-25T19:15:41.808Z,95774.65
2018-12-25T19:18:12.096Z,95768.16
2018-12-25T19:20:40.131Z,95778.39
2018-12-25T19:23:08.069Z,95780.08
2018-12-25T19:25:36.000Z,95789.23
2018-12-25T19:28:03.953Z,95790.91
2018-12-25T19:30:33.644Z,95793.11
2018-12-25T19:33:01.683Z,95796.57
2018-12-25T19:35:29.651Z,95795.52
2018-12-25T19:37:57.620Z,95806.30
2018-12-25T19:40:38.057Z,95807.36
2018-12-25T19:43:06.373Z,95800.48
2018-12-25T19:45:57.317Z,95805.75
2018-12-25T19:48:25.347Z,95814.61
2018-12-25T19:50:53.258Z,95811.88
2018-12-25T19:53:21.180Z,95819.14
2018-12-25T19:55:49.154Z,95824.20
2018-12-25T19:58:17.020Z,95819.67
2018-12-25T20:00:44.984Z,95814.03
2018-12-25T20:03:37.351Z,95823.43
2018-12-25T20:06:43.841Z,95823.59
2018-12-25T20:09:50.431Z,95823.80
2018-12-25T20:12:57.336Z,95834.49
2018-12-25T20:16:03.858Z,95827.75
2018-12-25T20:19:11.265Z,95826.73
2018-12-25T20:22:17.731Z,95832.49
2018-12-25T20:25:24.196Z,95825.45
2018-12-25T20:28:30.673Z,95836.05
2018-12-25T20:31:43.269Z,95832.30
2018-12-25T20:34:49.743Z,95839.20
2018-12-25T20:37:56.130Z,95840.64
2018-12-25T20:41:03.147Z,95838.48
2018-12-25T20:44:10.723Z,95842.87
2018-12-25T20:47:17.432Z,95842.56
2018-12-25T20:50:23.875Z,95838.59
2018-12-25T20:53:30.349Z,95855.45
2018-12-25T20:56:36.797Z,95857.50
2018-12-25T20:59:50.723Z,95852.70
2018-12-25T21:03:08.203Z,95859.69
2018-12-25T21:06:26.139Z,95861.94
2018-12-25T21:09:32.636Z,95844.64
2018-12-25T21:16:15.993Z,95864.69
2018-12-25T21:19:22.467Z,95855.70
2018-12-25T21:22:28.982Z,95856.23
2018-12-25T21:25:35.415Z,95858.89
2018-12-25T21:28:01.944Z,95860.05
2018-12-25T21:30:30.053Z,95859.97
2018-12-25T21:32:57.885Z,95865.00
2018-12-25T21:35:26.137Z,95859.98
2018-12-25T21:38:15.514Z,95866.73
2018-12-25T21:40:54.624Z,95863.71
2018-12-25T21:43:22.795Z,95868.30
2018-12-25T21:45:50.851Z,95860.84
2018-12-25T21:48:18.865Z,95867.23
2018-12-25T21:56:45.201Z,95858.75
2018-12-25T21:59:13.265Z,95864.58
2018-12-25T22:01:41.325Z,95855.78
2018-12-25T22:04:09.451Z,95857.16
2018-12-25T22:06:37.384Z,95858.98
2018-12-25T22:09:06.760Z,95861.76
2018-12-25T22:11:34.645Z,95865.17
2018-12-25T22:14:02.656Z,95872.83
2018-12-25T22:16:30.558Z,95891.45
2018-12-25T22:18:59.135Z,95882.30
2018-12-25T22:21:27.080Z,95887.73
2018-12-25T22:23:54.969Z,95886.94
2018-12-25T22:26:22.948Z,95888.43
2018-12-25T22:28:50.877Z,95880.56
2018-12-25T22:31:18.780Z,95872.05
2018-12-25T22:33:46.835Z,95869.36
2018-12-25T22:36:14.833Z,95856.96
2018-12-25T22:38:42.766Z,95866.34
2018-12-25T22:41:29.957Z,95862.71
2018-12-25T22:49:18.826Z,95867.52
2018-12-25T22:51:46.824Z,95870.07
2018-12-25T22:54:14.732Z,95873.03
2018-12-25T22:56:42.631Z,95880.91
2018-12-25T22:59:10.574Z,95879.47
2018-12-25T23:01:38.371Z,95882.76
2018-12-25T23:04:06.302Z,95868.81
2018-12-25T23:06:34.240Z,95879.48
2018-12-25T23:09:21.451Z,95861.19
2018-12-25T23:11:49.415Z,95861.19
2018-12-25T23:14:17.306Z,95866.70
2018-12-25T23:17:04.432Z,95869.16
2018-12-25T23:19:32.423Z,95869.16
2018-12-25T23:22:00.345Z,95876.39
2018-12-25T23:24:28.200Z,95879.90
2018-12-25T23:26:56.094Z,95879.77
2018-12-25T23:29:23.973Z,95884.90
2018-12-25T23:31:51.823Z,95889.63
2018-12-25T23:34:19.793Z,95889.31
2018-12-25T23:36:47.714Z,95880.84
2018-12-25T23:39:15.546Z,95887.06
2018-12-25T23:41:43.441Z,95897.09
2018-12-25T23:44:11.371Z,95895.86
2018-12-25T23:46:39.369Z,95895.86
2018-12-25T23:49:07.392Z,95896.61
2018-12-25T23:51:35.305Z,95896.34
2018-12-25T23:54:03.244Z,95899.69
2018-12-25T23:56:31.157Z,95898.56
2018-12-25T23:58:59.190Z,95898.42
